Onondaga, Michigan
Current Conditions -  °F | °C
As of 6:51 AM on Saturday 01 Nov 2014 (Local Time) from KTEW Reporting Station
Overcast Overcast  
Wind Chill: -7°   Ceiling: 2700
Heat Index: -1°   Visibility: 10mi
Dew Point: -6°   Wind: 14mph
Humidity: 71%   Direction: 360°N
Pressure: 30.29"   Gusts: 20mph
Location:  42.44°N, 84.56°W
Report Text: KTEW 011051Z AUTO 36012G17KT 10SM OVC027 M01/M06 A3029 RMK AO2 T10121058
Loading
Personal Weather Stations






























Interactive Weather Map
Tropical Storm Tracking
New forecast layout! Learn more

10-Day Weather Forecast

Advertisements
Track Severe Weather on mobile